Time;durP1;ratioP1;P1;durP2;ratioP2;P2;SDS_P1;SDS_P2;PMS_P1;PMS_P2;Temp;Humidity;BMP_temperature;BMP_pressure;BME280_temperature;BME280_humidity;BME280_pressure;Samples;Min_cycle;Max_cycle;Signal;HPM_P1;HPM_P2
2023/10/08 00:01:13;;;;;;;3.47;0.80;;;11.40;99.90;;;10.19;85.60;101403.53;6158012;23;20013;-81
2023/10/08 00:03:50;;;;;;;3.63;0.77;;;11.40;99.90;;;10.18;84.50;101412.38;6158894;23;20013;-83
2023/10/08 00:06:27;;;;;;;4.18;0.60;;;11.40;99.90;;;10.16;84.33;101435.22;6134388;23;20009;-82
2023/10/08 00:09:15;;;;;;;2.28;0.47;;;11.40;99.90;;;10.16;83.77;101429.97;6132858;23;20839;-82
2023/10/08 00:11:52;;;;;;;3.30;0.73;;;11.30;99.90;;;10.16;83.44;101429.97;6162533;23;20634;-83
2023/10/08 00:14:21;;;;;;;5.68;1.40;;;11.30;99.90;;;10.14;82.88;101427.38;6159628;23;20005;-82
2023/10/08 00:16:50;;;;;;;3.13;0.50;;;11.40;99.90;;;10.13;82.99;101435.31;6132882;23;20009;-81
2023/10/08 00:19:17;;;;;;;1.63;0.35;;;11.40;99.90;;;10.10;82.57;101438.91;6133912;23;20092;-81
2023/10/08 00:21:45;;;;;;;1.58;0.60;;;11.30;99.90;;;10.12;82.96;101438.88;6158637;23;20019;-82
2023/10/08 00:24:16;;;;;;;1.50;0.40;;;11.30;99.90;;;10.10;82.67;101438.06;6133866;23;20036;-81
2023/10/08 00:26:42;;;;;;;6.90;0.60;;;11.30;99.90;;;10.07;82.78;101454.81;6183451;23;20012;-82
2023/10/08 00:29:15;;;;;;;1.15;0.35;;;11.30;99.90;;;10.03;82.61;101467.22;6182018;23;20012;-83
2023/10/08 00:31:49;;;;;;;5.38;0.65;;;11.20;99.90;;;10.01;82.20;101471.66;6134752;23;20008;-82
2023/10/08 00:34:29;;;;;;;15.80;0.50;;;11.20;99.90;;;10.02;82.18;101469.88;6157386;23;20009;-82
2023/10/08 00:36:55;;;;;;;1.60;0.60;;;11.20;99.90;;;9.99;81.49;101464.72;6135521;23;20012;-82
2023/10/08 00:40:10;;;;;;;1.98;0.45;;;11.20;99.90;;;9.97;81.50;101467.41;6182065;23;20009;-84
2023/10/08 00:42:12;;;;;;;0.65;0.40;;;11.20;99.90;;;9.96;81.24;101470.97;6155586;23;20020;-83
2023/10/08 00:44:47;;;;;;;1.83;0.40;;;11.10;99.90;;;9.94;81.83;101478.03;6157450;23;20036;-82
2023/10/08 00:47:14;;;;;;;2.65;0.60;;;11.10;99.90;;;9.89;81.22;101471.19;6159486;23;19997;-82
2023/10/08 00:57:26;;;;;;;3.03;0.50;;;11.00;99.90;;;9.74;81.16;101477.78;6162784;23;20009;-83
2023/10/08 01:00:03;;;;;;;5.90;0.70;;;10.90;99.90;;;9.68;81.27;101493.78;6133079;23;20071;-82
2023/10/08 01:02:48;;;;;;;1.00;0.40;;;10.80;99.90;;;9.62;81.68;101486.94;6160698;23;20001;-82
2023/10/08 01:05:36;;;;;;;7.03;0.80;;;10.80;99.90;;;9.53;81.95;101514.38;6136382;23;20013;-82
2023/10/08 01:08:06;;;;;;;1.67;0.60;;;10.70;99.90;;;9.48;81.42;101541.69;6161476;23;20008;-82
2023/10/08 01:10:32;;;;;;;0.80;0.20;;;10.70;99.90;;;9.47;80.57;101546.09;6134154;23;20439;-82
2023/10/08 01:15:30;;;;;;;0.95;0.40;;;10.60;99.90;;;9.50;79.92;101547.75;6161369;23;20019;-82
2023/10/08 01:18:00;;;;;;;1.70;0.30;;;10.70;99.90;;;9.50;79.41;101553.88;6158417;23;20009;-82
2023/10/08 01:20:37;;;;;;;3.17;0.95;;;10.60;99.90;;;9.51;79.69;101555.59;6133560;23;20013;-82
2023/10/08 01:23:16;;;;;;;2.28;0.60;;;10.70;99.90;;;9.48;79.58;101537.31;6159196;23;20032;-82
2023/10/08 01:25:50;;;;;;;2.10;0.40;;;10.60;99.90;;;9.43;79.58;101547.06;6157850;23;20487;-81
2023/10/08 01:28:34;;;;;;;1.50;0.30;;;10.50;99.90;;;9.36;79.50;101540.28;6159480;23;20066;-81
2023/10/08 01:31:00;;;;;;;0.90;0.50;;;10.50;99.90;;;9.31;79.64;101544.78;6166411;23;20043;-82
2023/10/08 01:33:27;;;;;;;1.42;0.50;;;10.40;99.90;;;9.22;79.75;101566.94;6161919;23;20654;-81
2023/10/08 01:35:54;;;;;;;3.75;0.40;;;10.40;99.90;;;9.16;80.07;101575.84;6187203;23;20004;-82
2023/10/08 01:38:28;;;;;;;2.15;0.50;;;10.30;99.90;;;9.08;80.29;101577.81;6162376;23;20012;-81
2023/10/08 01:40:55;;;;;;;3.40;0.40;;;10.20;99.90;;;8.98;80.46;101578.97;6162625;23;20008;-82
2023/10/08 01:43:21;;;;;;;2.83;0.50;;;10.10;99.90;;;8.92;80.75;101572.13;6163678;23;20047;-80
2023/10/08 01:45:52;;;;;;;3.55;0.70;;;10.10;99.90;;;8.82;80.75;101581.13;6187368;23;20545;-81
2023/10/08 01:48:27;;;;;;;1.73;0.50;;;10.00;99.90;;;8.74;81.01;101586.56;6163805;23;20047;-81
2023/10/08 01:51:03;;;;;;;2.85;0.57;;;9.90;99.90;;;8.66;81.04;101596.44;6190200;23;20008;-81
2023/10/08 01:53:31;;;;;;;;;;;9.90;99.90;;;8.55;81.48;101598.44;6214209;23;20070;-82
2023/10/08 01:55:58;;;;;;;1.77;0.40;;;9.70;99.90;;;8.48;81.77;101594.22;6162395;23;19903;-81
2023/10/08 01:58:26;;;;;;;0.98;0.40;;;9.70;99.90;;;8.41;82.19;101588.28;6187229;23;20016;-81
2023/10/08 02:00:58;;;;;;;2.30;0.40;;;9.60;99.90;;;8.35;82.08;101598.88;6162628;23;20012;-81
2023/10/08 02:03:27;;;;;;;1.05;0.35;;;9.60;99.90;;;8.29;82.13;101591.16;6162905;23;20336;-82
2023/10/08 02:05:59;;;;;;;2.33;0.40;;;9.50;99.90;;;8.21;82.43;101591.34;6163595;23;20023;-82
2023/10/08 02:08:26;;;;;;;5.45;0.47;;;9.40;99.90;;;8.12;82.51;101579.28;6187208;23;20005;-82
2023/10/08 02:10:57;;;;;;;5.35;1.42;;;9.30;99.90;;;8.04;82.57;101578.59;6164508;23;20448;-82
2023/10/08 02:13:23;;;;;;;3.63;0.40;;;9.30;99.90;;;8.00;82.79;101593.53;6188225;23;20016;-82
2023/10/08 02:15:52;;;;;;;2.45;0.40;;;9.20;99.90;;;7.93;82.68;101602.44;6163093;23;20016;-81
2023/10/08 02:18:26;;;;;;;2.83;0.40;;;9.20;99.90;;;7.89;83.03;101595.53;6188122;23;20004;-81
2023/10/08 02:20:52;;;;;;;0.60;0.30;;;9.10;99.90;;;7.82;83.42;101591.31;6188516;23;20096;-82
2023/10/08 02:23:18;;;;;;;1.83;0.40;;;9.10;99.90;;;7.73;83.29;101599.34;6163401;23;20009;-81
2023/10/08 02:25:44;;;;;;;0.77;0.30;;;9.00;99.90;;;7.66;83.88;101598.63;6187670;23;20019;-81
2023/10/08 02:28:17;;;;;;;9.07;0.50;;;8.90;99.90;;;7.58;82.93;101598.78;6163533;23;20027;-81
2023/10/08 02:30:43;;;;;;;1.33;0.73;;;8.80;99.90;;;7.51;83.74;101602.41;6166959;23;20043;-81
2023/10/08 02:33:15;;;;;;;0.90;0.40;;;8.80;99.90;;;7.47;83.54;101595.50;6189189;23;20035;-81
2023/10/08 02:35:45;;;;;;;1.05;0.30;;;8.80;99.90;;;7.47;84.22;101602.50;6165037;23;20004;-81
2023/10/08 02:38:17;;;;;;;0.60;0.40;;;8.70;99.90;;;7.46;84.33;101601.66;6165164;23;20217;-80
2023/10/08 02:40:49;;;;;;;8.13;0.55;;;8.70;99.90;;;7.43;84.45;101606.06;6165696;23;20012;-82
2023/10/08 02:43:15;;;;;;;1.25;0.30;;;8.60;99.90;;;7.33;84.48;101613.28;6165744;23;20008;-82
2023/10/08 02:45:47;;;;;;;0.95;0.50;;;8.60;99.90;;;7.23;84.78;101612.56;6188856;23;20008;-82
2023/10/08 02:48:21;;;;;;;0.45;0.25;;;8.50;99.90;;;7.19;85.18;101618.75;6191351;23;20000;-82
2023/10/08 02:50:47;;;;;;;2.33;0.45;;;8.50;99.90;;;7.14;84.89;101629.31;6167037;23;20028;-81
2023/10/08 02:53:17;;;;;;;3.35;0.43;;;8.40;99.90;;;7.08;84.31;101621.56;6189583;23;20090;-82
2023/10/08 02:55:46;;;;;;;1.13;0.50;;;8.30;99.90;;;6.98;84.92;101620.88;6166182;23;20011;-82
2023/10/08 02:58:15;;;;;;;1.38;0.30;;;8.20;99.90;;;6.91;84.55;101623.59;6190065;23;20011;-82
2023/10/08 03:00:54;;;;;;;0.77;0.28;;;8.10;99.90;;;6.83;84.57;101628.13;6165152;23;20082;-82
2023/10/08 03:03:24;;;;;;;0.65;0.30;;;8.10;99.90;;;6.75;84.50;101629.09;6164957;23;20008;-82
2023/10/08 03:05:56;;;;;;;8.77;0.60;;;8.10;99.90;;;6.74;85.39;101640.47;6166536;23;20666;-82
2023/10/08 03:08:24;;;;;;;5.45;0.50;;;8.00;99.90;;;6.68;85.12;101631.88;6191420;23;20004;-82
2023/10/08 03:11:02;;;;;;;4.88;0.50;;;8.00;99.90;;;6.65;84.85;101639.75;6190489;23;20127;-82
2023/10/08 03:13:31;;;;;;;4.28;0.40;;;7.90;99.90;;;6.60;84.52;101649.44;6192359;23;20747;-81
2023/10/08 03:18:35;;;;;;;0.95;0.40;;;7.80;99.90;;;6.52;85.27;101660.88;6192595;23;20008;-81
2023/10/08 03:21:20;;;;;;;3.83;0.45;;;7.80;99.90;;;6.47;84.91;101670.53;6191708;23;20386;-82
2023/10/08 03:23:56;;;;;;;1.77;0.40;;;7.70;99.90;;;6.42;84.89;101680.22;6167480;23;20041;-81
2023/10/08 03:26:33;;;;;;;0.75;0.30;;;7.70;99.90;;;6.38;85.05;101686.38;6190784;23;20012;-81
2023/10/08 03:29:15;;;;;;;3.55;0.35;;;7.70;99.90;;;6.33;85.32;101683.81;6166628;23;20017;-81
2023/10/08 03:31:54;;;;;;;0.90;0.30;;;7.60;99.90;;;6.31;84.85;101690.81;6168071;23;20008;-81
2023/10/08 03:34:34;;;;;;;0.55;0.30;;;7.60;99.90;;;6.26;84.69;101691.75;6192262;23;20001;-82
2023/10/08 03:37:06;;;;;;;1.48;0.40;;;7.50;99.90;;;6.19;84.93;101696.22;6166816;23;20593;-82
2023/10/08 03:39:50;;;;;;;3.13;0.45;;;7.40;99.90;;;6.14;84.73;101703.25;6190353;23;20011;-82
2023/10/08 03:42:25;;;;;;;5.38;0.82;;;7.40;99.90;;;6.08;84.67;101708.56;6169287;23;20008;-81
2023/10/08 03:44:52;;;;;;;1.13;0.40;;;7.40;99.90;;;6.00;84.62;101706.03;6165030;23;20004;-82
2023/10/08 03:47:19;;;;;;;2.00;0.40;;;7.30;99.90;;;5.95;84.88;101702.63;6164597;23;20083;-81
2023/10/08 03:49:54;;;;;;;0.70;0.30;;;7.30;99.90;;;5.89;85.16;101697.41;6164509;23;20008;-81
2023/10/08 03:52:26;;;;;;;4.25;0.60;;;7.20;99.90;;;5.84;84.72;101710.53;6190785;23;20451;-82
2023/10/08 03:55:42;;;;;;;1.20;0.45;;;7.20;99.90;;;5.79;84.99;101704.50;6191757;23;20039;-81
2023/10/08 03:57:44;;;;;;;5.32;0.77;;;7.10;99.90;;;5.74;85.02;101708.91;6188360;23;20008;-82
2023/10/08 04:00:28;;;;;;;1.42;0.43;;;7.00;99.90;;;5.71;84.98;101716.78;6164335;23;20394;-82
2023/10/08 04:03:01;;;;;;;2.30;0.57;;;7.00;99.90;;;5.64;84.53;101716.00;6168370;23;20019;-82
2023/10/08 04:05:32;;;;;;;2.35;0.20;;;6.90;99.90;;;5.58;84.76;101718.66;6165527;23;20028;-81
2023/10/08 04:13:08;;;;;;;0.93;0.35;;;6.80;99.90;;;5.45;85.46;101714.44;6191512;23;20101;-82
2023/10/08 04:15:40;;;;;;;1.40;0.40;;;6.80;99.90;;;5.42;85.52;101722.28;6165644;23;20004;-81
2023/10/08 04:18:10;;;;;;;1.83;0.40;;;;;;;5.39;85.68;101710.13;6189185;23;20005;-80
2023/10/08 04:20:58;;;;;;;1.55;0.30;;;6.70;99.90;;;5.35;85.82;101713.66;6188772;23;20005;-81
2023/10/08 04:23:30;;;;;;;1.52;0.40;;;6.70;99.90;;;5.30;85.95;101718.06;6168866;23;20008;-82
2023/10/08 04:25:55;;;;;;;0.40;0.25;;;6.60;99.90;;;5.27;85.67;101725.91;6164698;23;20063;-82
2023/10/08 04:28:22;;;;;;;2.92;0.30;;;6.60;99.90;;;5.25;85.94;101740.75;6187591;23;20458;-81
2023/10/08 04:30:48;;;;;;;1.48;0.50;;;6.60;99.90;;;5.22;85.92;101745.97;6164030;23;20350;-80
2023/10/08 04:33:22;;;;;;;1.90;0.50;;;6.50;99.90;;;5.18;85.59;101752.09;6164414;23;20017;-81
2023/10/08 04:35:48;;;;;;;1.85;0.50;;;6.50;99.90;;;5.10;85.42;101747.81;6187230;23;20007;-81
2023/10/08 04:38:18;;;;;;;4.57;0.63;;;6.40;99.90;;;5.05;85.72;101749.56;6188343;23;20004;-81
2023/10/08 04:40:51;;;;;;;3.60;0.30;;;6.40;99.90;;;5.01;85.45;101758.34;6165189;23;20005;-82
2023/10/08 04:43:24;;;;;;;0.65;0.28;;;6.30;99.90;;;4.97;85.60;101758.34;6164438;23;20115;-80
2023/10/08 04:45:56;;;;;;;2.92;0.50;;;6.30;99.90;;;4.92;85.89;101755.75;6163903;23;20009;-81
2023/10/08 04:48:36;;;;;;;4.35;0.40;;;6.30;99.90;;;4.90;85.44;101760.13;6163698;23;20089;-80
2023/10/08 04:51:03;;;;;;;0.68;0.20;;;6.20;99.90;;;4.87;85.99;101747.97;6166015;23;20017;-82
2023/10/08 04:53:48;;;;;;;0.90;0.30;;;6.20;99.90;;;4.87;86.27;101762.75;6164027;23;20009;-82
2023/10/08 04:56:17;;;;;;;0.70;0.20;;;6.20;99.90;;;4.84;86.16;101766.25;6188465;23;20005;-81
2023/10/08 04:58:47;;;;;;;2.35;0.47;;;6.20;99.90;;;4.82;86.27;101769.78;6189234;23;20016;-82
2023/10/08 05:01:37;;;;;;;1.38;0.40;;;6.20;99.90;;;4.81;86.17;101770.63;6163366;23;20012;-82
2023/10/08 05:07:00;;;;;;;;;;;;;;;;;;;;;
2023/10/08 05:20:17;;;;;;;0.28;0.22;;;6.00;99.90;;;4.57;86.59;101809.00;6195099;23;20019;-81
2023/10/08 05:22:44;;;;;;;1.50;0.45;;;5.90;99.90;;;4.53;86.61;101812.50;6194399;23;20019;-82
2023/10/08 05:25:24;;;;;;;1.63;0.50;;;5.90;99.90;;;4.50;86.62;101820.34;6164495;23;20031;-82
2023/10/08 05:38:22;;;;;;;1.02;0.55;;;5.70;99.90;;;4.38;86.81;101828.22;6192837;23;20012;-81
2023/10/08 05:49:25;;;;;;;0.57;0.50;;;5.80;99.90;;;4.40;87.84;101829.94;6195078;23;20009;-81
2023/10/08 06:05:23;;;;;;;1.88;0.60;;;5.70;99.90;;;4.46;88.50;101847.31;6196389;23;20012;-82
2023/10/08 06:13:09;;;;;;;1.40;0.50;;;5.80;99.90;;;4.59;88.80;101871.63;6195897;23;20435;-82
2023/10/08 06:15:49;;;;;;;3.15;0.50;;;5.90;99.90;;;4.64;88.75;101873.31;6166301;23;20032;-82
2023/10/08 06:18:25;;;;;;;1.80;0.50;;;6.00;99.90;;;4.71;88.93;101879.41;6190187;23;20347;-82
2023/10/08 06:21:11;;;;;;;1.55;0.40;;;6.10;99.90;;;4.84;89.13;101882.84;6167147;23;20343;-82
2023/10/08 06:23:41;;;;;;;2.83;0.37;;;6.10;99.90;;;4.97;88.98;101886.22;6192660;23;20014;-82
2023/10/08 06:28:36;;;;;;;3.22;0.50;;;6.50;99.90;;;5.27;89.04;101891.31;6190529;23;20012;-82
2023/10/08 06:31:06;;;;;;;1.15;0.50;;;6.60;99.90;;;5.46;89.36;101894.66;6190573;23;20435;-82
2023/10/08 06:33:37;;;;;;;1.33;0.40;;;6.80;99.90;;;5.65;89.16;101897.16;6167262;23;20001;-82
2023/10/08 06:36:18;;;;;;;0.50;0.32;;;6.90;99.90;;;5.84;89.20;101911.81;6166301;23;20009;-83
2023/10/08 06:38:49;;;;;;;0.85;0.30;;;7.10;99.90;;;6.03;89.12;101919.53;6194126;23;20704;-82
2023/10/08 06:41:23;;;;;;;1.25;0.38;;;7.30;99.90;;;6.21;88.41;101928.97;6191778;23;20008;-82
2023/10/08 06:43:53;;;;;;;0.60;0.40;;;7.40;99.90;;;6.40;88.67;101940.13;6193807;23;20012;-82
2023/10/08 06:46:21;;;;;;;2.83;0.60;;;7.70;99.90;;;6.61;88.69;101944.25;6170591;23;20036;-82
2023/10/08 06:48:49;;;;;;;2.78;0.50;;;7.90;99.90;;;6.85;88.10;101948.38;6165688;23;20008;-81
2023/10/08 06:51:17;;;;;;;0.32;0.32;;;8.10;99.90;;;7.09;87.72;101952.44;6165789;23;20084;-82
2023/10/08 06:54:02;;;;;;;0.75;0.30;;;8.30;99.90;;;7.30;86.99;101954.78;6166669;23;20016;-82
2023/10/08 06:56:33;;;;;;;3.97;0.40;;;8.50;99.90;;;7.54;86.18;101966.69;6193371;23;20015;-81
2023/10/08 06:58:59;;;;;;;0.75;0.50;;;8.70;99.90;;;7.72;85.67;101965.53;6165060;23;20011;-82
2023/10/08 07:01:25;;;;;;;2.83;0.45;;;9.00;99.90;;;7.93;85.21;101981.84;6166086;23;20004;-82
2023/10/08 07:04:03;;;;;;;0.40;0.25;;;9.10;99.90;;;8.16;84.70;101998.09;6165096;23;20012;-82
2023/10/08 07:06:34;;;;;;;1.23;0.50;;;9.40;99.90;;;8.40;85.25;102009.97;6193438;23;20012;-81
2023/10/08 07:09:22;;;;;;;2.95;0.35;;;9.60;99.90;;;8.67;84.35;102010.38;6165955;23;20069;-82
2023/10/08 07:11:54;;;;;;;0.60;0.32;;;9.90;99.90;;;8.93;84.42;102016.91;6194278;23;20312;-82
2023/10/08 07:14:26;;;;;;;1.98;0.50;;;10.10;99.90;;;9.18;83.57;102028.66;6168154;23;20005;-82
2023/10/08 07:17:07;;;;;;;1.08;0.47;;;10.40;99.90;;;9.44;83.16;102029.91;6166307;23;20091;-82
2023/10/08 07:19:36;;;;;;;2.25;0.50;;;10.70;99.90;;;9.69;82.33;102032.00;6167244;23;20080;-82
2023/10/08 07:22:10;;;;;;;3.13;0.60;;;10.90;99.90;;;9.92;81.99;102039.38;6168199;23;20414;-82
2023/10/08 07:24:50;;;;;;;1.67;0.93;;;11.10;99.90;;;10.16;81.72;102041.41;6168721;23;20015;-82
2023/10/08 07:27:21;;;;;;;1.38;0.50;;;11.30;99.90;;;10.35;81.04;102036.63;6195962;23;20051;-81
2023/10/08 07:29:55;;;;;;;0.40;0.30;;;11.40;99.90;;;10.39;78.54;102054.06;6166252;23;20383;-81
2023/10/08 07:32:25;;;;;;;0.98;0.40;;;11.50;99.90;;;10.41;76.99;102051.38;6192168;23;20008;-82
2023/10/08 07:34:57;;;;;;;1.08;0.40;;;11.50;99.90;;;10.44;76.58;102053.94;6191146;23;20000;-82
2023/10/08 07:37:26;;;;;;;4.68;0.43;;;11.60;99.90;;;10.53;77.16;102066.03;6166918;23;20379;-81
2023/10/08 07:39:54;;;;;;;0.93;0.30;;;11.70;99.90;;;10.69;76.64;102064.75;6191356;23;20016;-82
2023/10/08 07:42:29;;;;;;;0.70;0.40;;;11.90;99.90;;;10.96;76.54;102071.03;6191209;23;20009;-82
2023/10/08 07:44:55;;;;;;;3.63;0.32;;;12.10;99.90;;;11.22;76.26;102072.97;6166119;23;20008;-82
2023/10/08 07:47:21;;;;;;;1.45;0.40;;;12.40;99.90;;;11.48;75.67;102085.41;6167517;23;20009;-83
2023/10/08 07:49:47;;;;;;;2.63;0.40;;;12.60;99.90;;;11.75;75.61;102093.44;6166014;23;20012;-82
2023/10/08 07:52:20;;;;;;;3.42;0.70;;;12.90;99.90;;;12.06;75.30;102103.09;6189785;23;20007;-82
2023/10/08 07:54:47;;;;;;;1.98;0.57;;;13.20;99.90;;;12.30;74.37;102112.03;6166869;23;20115;-83
2023/10/08 07:57:17;;;;;;;1.30;0.50;;;13.40;99.90;;;12.56;73.06;102128.81;6165841;23;20004;-82
2023/10/08 07:59:46;;;;;;;1.55;0.50;;;13.60;99.90;;;12.83;72.54;102132.31;6167665;23;20004;-83
2023/10/08 08:02:16;;;;;;;1.20;0.40;;;13.90;99.90;;;13.07;71.24;102133.28;6191952;23;20094;-83
2023/10/08 08:04:50;;;;;;;1.55;0.60;;;14.10;99.90;;;13.24;68.80;102140.59;6192144;23;20078;-83
2023/10/08 08:07:16;;;;;;;5.13;0.40;;;14.30;99.90;;;13.45;68.30;102149.59;6169881;23;20001;-82
2023/10/08 08:09:58;;;;;;;1.65;0.40;;;14.60;99.90;;;13.62;68.82;102149.84;6166506;23;20072;-82
2023/10/08 08:12:25;;;;;;;3.10;0.50;;;14.80;99.90;;;13.77;68.72;102160.78;6169405;23;20004;-83
2023/10/08 08:14:59;;;;;;;2.55;0.47;;;14.80;99.90;;;13.53;67.70;102176.66;6166102;23;20012;-82
2023/10/08 08:17:25;;;;;;;1.95;0.40;;;14.60;99.90;;;13.21;67.34;102181.25;6165511;23;20084;-83
2023/10/08 08:19:52;;;;;;;1.45;0.43;;;14.30;99.90;;;12.87;67.39;102177.13;6164449;23;20020;-82
2023/10/08 08:22:31;;;;;;;5.07;0.50;;;14.30;99.90;;;12.56;69.72;102171.94;6189582;23;20443;-83
2023/10/08 08:25:15;;;;;;;2.40;0.47;;;13.80;99.90;;;12.37;70.73;102161.09;6166514;23;20012;-82
2023/10/08 08:27:49;;;;;;;0.73;0.40;;;13.60;99.90;;;12.29;71.24;102166.63;6168383;23;20549;-82
2023/10/08 08:30:18;;;;;;;2.60;0.40;;;13.40;99.90;;;12.14;71.64;102176.78;6191544;23;20000;-83
2023/10/08 08:32:52;;;;;;;0.60;0.32;;;13.30;99.90;;;11.95;71.24;102177.34;6165611;23;20075;-82
2023/10/08 08:35:19;;;;;;;2.03;0.50;;;13.20;99.90;;;11.91;71.81;102188.88;6164427;23;20008;-82
2023/10/08 08:37:46;;;;;;;3.60;0.50;;;13.20;99.90;;;11.90;71.81;102190.69;6165755;23;20019;-82
2023/10/08 08:40:18;;;;;;;1.45;0.30;;;13.20;99.90;;;12.00;71.86;102193.03;6165083;23;20349;-82
2023/10/08 08:42:46;;;;;;;1.88;0.50;;;13.30;99.90;;;12.10;71.49;102192.72;6191370;23;20487;-83
2023/10/08 08:45:18;;;;;;;1.35;0.32;;;13.30;99.90;;;12.06;71.42;102195.50;6190420;23;20005;-82
2023/10/08 08:47:46;;;;;;;5.13;0.57;;;13.30;99.90;;;12.03;71.40;102196.47;6165769;23;20007;-82
2023/10/08 08:50:12;;;;;;;1.83;0.40;;;13.20;99.90;;;11.93;71.62;102192.34;6190034;23;20343;-82
2023/10/08 08:52:39;;;;;;;0.88;0.40;;;13.10;99.90;;;11.81;71.73;102193.53;6190201;23;20000;-82
2023/10/08 08:55:17;;;;;;;1.58;0.43;;;13.10;99.90;;;11.79;71.63;102194.47;6164638;23;20100;-83
2023/10/08 08:57:44;;;;;;;4.07;0.50;;;13.00;99.90;;;11.70;72.40;102199.13;6167385;23;20068;-82
2023/10/08 09:00:16;;;;;;;1.10;0.30;;;13.00;99.90;;;11.68;73.09;102206.22;6189097;23;20055;-82
2023/10/08 09:02:44;;;;;;;0.88;0.30;;;12.90;99.90;;;11.60;72.52;102197.66;6188523;23;20001;-83
2023/10/08 09:05:24;;;;;;;4.78;0.65;;;12.80;99.90;;;11.65;72.47;102202.78;6162284;23;20474;-81
2023/10/08 09:08:09;;;;;;;1.17;0.47;;;12.80;99.90;;;11.56;72.87;102206.53;6189952;23;20001;-82
2023/10/08 09:10:51;;;;;;;2.97;0.50;;;12.70;99.90;;;11.50;72.67;102199.66;6162656;23;20035;-81
2023/10/08 09:13:22;;;;;;;1.27;0.35;;;12.70;99.90;;;11.45;74.14;102208.63;6190454;23;20004;-81
2023/10/08 09:15:51;;;;;;;2.10;0.28;;;12.70;99.90;;;11.50;73.75;102214.63;6162593;23;20095;-81
2023/10/08 09:18:23;;;;;;;3.08;0.40;;;12.70;99.90;;;11.68;73.21;102210.59;6187997;23;20008;-82
2023/10/08 09:20:49;;;;;;;2.75;1.15;;;12.80;99.90;;;11.83;73.07;102211.97;6164534;23;20023;-82
2023/10/08 09:23:21;;;;;;;0.98;0.50;;;13.00;99.90;;;12.04;71.38;102214.03;6163576;23;20339;-82
2023/10/08 09:26:02;;;;;;;0.55;0.35;;;13.00;99.90;;;12.20;70.97;102221.50;6188578;23;20229;-83
2023/10/08 09:28:28;;;;;;;4.15;0.98;;;13.30;99.90;;;12.40;71.20;102229.69;6162879;23;20024;-81
2023/10/08 09:31:00;;;;;;;1.48;0.35;;;13.50;99.90;;;12.57;69.98;102241.50;6163708;23;20004;-82
2023/10/08 09:33:29;;;;;;;0.88;0.40;;;13.60;99.90;;;12.42;68.37;102238.44;6161184;23;20009;-82
2023/10/08 09:36:02;;;;;;;1.10;0.30;;;13.70;99.90;;;12.57;68.84;102246.78;6161952;23;20455;-82
2023/10/08 09:38:30;;;;;;;1.00;0.32;;;13.80;99.90;;;12.81;69.54;102246.03;6164817;23;20058;-82
2023/10/08 09:41:08;;;;;;;1.35;0.50;;;13.90;99.90;;;12.86;69.37;102249.41;6189046;23;20009;-82
2023/10/08 09:43:35;;;;;;;1.75;0.45;;;14.00;99.90;;;13.07;68.82;102261.06;6165595;23;20009;-82
2023/10/08 09:46:19;;;;;;;1.45;0.38;;;14.10;99.90;;;13.02;67.69;102262.13;6161423;23;20032;-83
2023/10/08 09:48:59;;;;;;;0.90;0.38;;;14.10;99.90;;;13.10;67.19;102268.03;6161142;23;20004;-83
2023/10/08 09:51:29;;;;;;;1.63;0.60;;;14.20;99.90;;;12.92;66.80;102272.13;6164971;23;20019;-82
2023/10/08 09:54:13;;;;;;;2.42;1.00;;;14.10;99.90;;;13.02;67.50;102272.69;6162511;23;20016;-83
2023/10/08 09:56:40;;;;;;;0.82;0.40;;;14.20;99.90;;;13.12;67.69;102272.34;6162170;23;20008;-82
2023/10/08 09:59:13;;;;;;;1.60;0.32;;;14.30;99.90;;;13.27;67.72;102276.28;6159821;23;20018;-81
2023/10/08 10:01:42;;;;;;;0.77;0.40;;;14.40;99.90;;;13.32;66.57;102284.94;6165563;23;20708;-82
2023/10/08 10:04:14;;;;;;;1.58;0.40;;;14.50;99.90;;;13.46;66.05;102294.22;6188365;23;20001;-81
2023/10/08 10:06:44;;;;;;;0.80;0.35;;;14.50;99.90;;;13.45;64.97;102295.97;6163579;23;20004;-82
2023/10/08 10:09:24;;;;;;;1.05;0.47;;;14.50;99.90;;;13.35;65.88;102299.88;6162632;23;20008;-82
2023/10/08 10:11:53;;;;;;;2.17;0.57;;;14.50;99.90;;;13.44;65.58;102290.75;6188234;23;20005;-82
2023/10/08 10:14:26;;;;;;;1.17;0.57;;;14.60;99.90;;;13.53;65.02;102301.03;6162004;23;20048;-82
2023/10/08 10:17:26;;;;;;;2.85;0.57;;;14.70;99.90;;;13.56;64.19;102303.56;6188765;23;20067;-82
2023/10/08 10:20:00;;;;;;;1.70;0.52;;;14.60;99.90;;;13.47;63.21;102315.31;6064544;23;20473;-82
2023/10/08 10:22:34;;;;;;;1.08;0.55;;;14.60;99.90;;;13.54;64.34;102316.88;6017720;23;20369;-81
2023/10/08 10:25:14;;;;;;;1.80;0.50;;;14.60;99.90;;;13.27;65.41;102308.00;6017889;23;20022;-82
2023/10/08 10:27:57;;;;;;;1.08;0.30;;;14.50;99.90;;;13.30;64.88;102315.00;6018356;23;20010;-82
2023/10/08 10:30:32;;;;;;;0.88;0.38;;;14.50;99.90;;;13.33;63.90;102317.56;6040803;23;20040;-82
2023/10/08 10:33:10;;;;;;;1.20;0.47;;;14.40;99.90;;;13.29;65.23;102318.59;6041763;23;20018;-82
2023/10/08 10:35:40;;;;;;;1.50;0.50;;;14.50;99.90;;;13.40;65.40;102318.25;6043872;23;20018;-82
2023/10/08 10:38:13;;;;;;;0.77;0.40;;;14.50;99.90;;;13.48;65.08;102321.50;6040305;23;20034;-82
2023/10/08 10:40:56;;;;;;;1.23;0.50;;;14.60;99.90;;;13.44;65.42;102314.56;6042809;23;20018;-81
2023/10/08 10:43:32;;;;;;;0.80;0.43;;;14.60;99.90;;;13.46;65.06;102313.59;6044239;23;20093;-82
2023/10/08 10:46:29;;;;;;;0.65;0.40;;;14.60;99.90;;;13.45;64.49;102313.66;6041633;23;20082;-82
2023/10/08 10:49:17;;;;;;;1.42;0.50;;;14.60;99.90;;;13.48;64.08;102321.50;6046938;23;20446;-82
2023/10/08 10:52:07;;;;;;;2.22;0.40;;;14.60;99.90;;;13.42;63.31;102327.84;6047781;23;20384;-82
2023/10/08 10:54:41;;;;;;;2.15;0.35;;;14.50;99.90;;;13.17;61.84;102332.16;6065357;23;20014;-83
2023/10/08 10:57:34;;;;;;;1.00;0.40;;;14.50;99.90;;;13.25;63.36;102328.34;6169077;23;20320;-82
2023/10/08 11:02:59;;;;;;;1.83;0.38;;;14.30;99.90;;;12.98;64.23;102331.88;6194854;23;20069;-82
2023/10/08 11:05:31;;;;;;;11.60;0.60;;;14.20;99.90;;;12.73;62.73;102332.63;6165849;23;20016;-82
2023/10/08 11:08:05;;;;;;;1.20;0.40;;;14.00;99.90;;;12.58;62.58;102343.66;6166596;23;20364;-82
2023/10/08 11:10:50;;;;;;;0.60;0.40;;;13.90;99.90;;;12.51;61.61;102346.47;6191463;23;20001;-82
2023/10/08 11:13:28;;;;;;;2.55;0.40;;;13.80;99.90;;;12.47;62.29;102341.34;6168848;23;20001;-83
2023/10/08 11:16:03;;;;;;;1.50;0.40;;;13.70;99.90;;;12.50;63.68;102336.84;6191758;23;20093;-82
2023/10/08 11:18:29;;;;;;;0.73;0.33;;;13.70;99.90;;;12.51;63.75;102333.25;6165399;23;20351;-81
2023/10/08 11:21:24;;;;;;;0.63;0.30;;;13.70;99.90;;;12.35;62.28;102339.03;6166089;23;20104;-83
2023/10/08 11:24:12;;;;;;;1.85;0.40;;;13.60;99.90;;;12.40;61.03;102345.94;6194022;23;20007;-81
2023/10/08 11:26:54;;;;;;;0.60;0.40;;;13.60;99.90;;;12.40;62.14;102347.72;6166985;23;20383;-82
2023/10/08 11:29:26;;;;;;;0.65;0.40;;;13.60;99.90;;;12.45;62.14;102343.16;6167932;23;20013;-82
2023/10/08 11:31:53;;;;;;;2.80;0.50;;;13.60;99.90;;;12.49;60.99;102347.44;6165611;23;20012;-82
2023/10/08 11:34:36;;;;;;;5.45;0.45;;;13.60;99.90;;;12.42;61.33;102344.13;6163264;23;20012;-83
2023/10/08 11:37:22;;;;;;;3.05;0.65;;;13.60;99.90;;;12.47;62.66;102344.84;6168428;23;20099;-83
2023/10/08 11:39:53;;;;;;;1.48;0.50;;;13.60;99.90;;;12.49;62.61;102350.09;6194365;23;20013;-81
2023/10/08 11:44:54;;;;;;;1.33;0.30;;;13.70;99.90;;;12.45;60.80;102357.22;6196852;23;20112;-83
2023/10/08 11:47:42;;;;;;;0.65;0.30;;;13.60;99.90;;;12.44;61.90;102357.25;6166260;23;20008;-83
2023/10/08 11:50:21;;;;;;;1.25;0.40;;;13.60;99.90;;;12.54;61.84;102358.72;6169868;23;20342;-82
2023/10/08 11:52:49;;;;;;;0.73;0.30;;;13.70;99.90;;;12.55;61.59;102351.66;6167139;23;20087;-83
2023/10/08 11:55:18;;;;;;;1.63;0.50;;;13.70;99.90;;;12.62;61.33;102358.53;6164773;23;20012;-84
2023/10/08 11:57:48;;;;;;;1.08;0.40;;;13.70;99.90;;;12.61;61.79;102359.41;6165691;23;20019;-83
2023/10/08 12:00:18;;;;;;;1.15;0.35;;;13.80;99.90;;;12.68;60.63;102364.50;6167084;23;20058;-83
2023/10/08 12:02:49;;;;;;;1.50;0.40;;;13.80;99.90;;;12.64;59.10;102370.78;6167292;23;20035;-83